Time;durP1;ratioP1;P1;durP2;ratioP2;P2;SDS_P1;SDS_P2;PMS_P1;PMS_P2;Temp;Humidity;BMP_temperature;BMP_pressure;BME280_temperature;BME280_humidity;BME280_pressure;Samples;Min_cycle;Max_cycle;Signal;HPM_P1;HPM_P2
2024/01/26 00:00:31;;;;;;;1999.90;999.90;;;;;;;10.21;100.00;102259.00;10377963;28;20082;-68
2024/01/26 00:05:34;;;;;;;1999.90;999.90;;;;;;;10.50;100.00;102259.00;10378304;28;20508;-68
2024/01/26 00:10:37;;;;;;;1999.90;999.90;;;;;;;10.27;100.00;102247.50;10376007;28;20096;-68
2024/01/26 00:15:40;;;;;;;1999.90;999.90;;;;;;;10.41;100.00;102257.53;10378547;28;20056;-68
2024/01/26 00:20:43;;;;;;;1999.90;999.90;;;;;;;10.28;100.00;102248.34;10377751;28;20556;-68
2024/01/26 00:25:45;;;;;;;1999.90;999.90;;;;;;;10.30;100.00;102243.91;10377439;28;20052;-68
2024/01/26 00:30:47;;;;;;;1999.90;999.90;;;;;;;10.44;100.00;102248.72;10377293;28;20486;-68
2024/01/26 00:35:50;;;;;;;1999.90;999.90;;;;;;;10.50;100.00;102240.66;10377191;28;20535;-68
2024/01/26 00:40:52;;;;;;;1999.90;999.90;;;;;;;10.27;100.00;102234.41;10377551;28;20056;-68
2024/01/26 00:45:55;;;;;;;1999.90;999.90;;;;;;;10.44;100.00;102235.63;10376806;28;20046;-68
2024/01/26 00:50:57;;;;;;;1999.90;999.90;;;;;;;10.30;100.00;102231.66;10377165;28;20050;-68
2024/01/26 00:55:59;;;;;;;1999.90;999.90;;;;;;;10.18;100.00;102229.47;10377000;28;20049;-68
2024/01/26 01:01:03;;;;;;;1999.90;999.90;;;;;;;10.31;100.00;102225.53;10376223;28;20482;-68
2024/01/26 01:06:05;;;;;;;1999.90;999.90;;;;;;;10.18;100.00;102224.22;10376128;28;20049;-68
2024/01/26 01:11:08;;;;;;;1999.90;999.90;;;;;;;10.32;100.00;102226.41;10375301;28;20567;-68
2024/01/26 01:16:12;;;;;;;1999.90;999.90;;;;;;;10.26;100.00;102217.00;10375854;28;20481;-68
2024/01/26 01:21:15;;;;;;;1999.90;999.90;;;;;;;10.20;100.00;102214.56;10376226;28;20050;-68
2024/01/26 01:26:18;;;;;;;1999.90;999.90;;;;;;;10.22;100.00;102220.59;10376074;28;20053;-68
2024/01/26 01:31:20;;;;;;;1999.90;999.90;;;;;;;10.47;100.00;102217.19;10375752;28;20128;-68
2024/01/26 01:36:22;;;;;;;1999.90;999.90;;;;;;;10.39;100.00;102217.47;10374518;28;20050;-68
2024/01/26 01:41:25;;;;;;;1999.90;999.90;;;;;;;10.32;100.00;102198.50;10374372;28;20077;-68
2024/01/26 01:46:27;;;;;;;1999.90;999.90;;;;;;;10.30;100.00;102194.19;10375368;28;20054;-68
2024/01/26 01:51:33;;;;;;;1999.90;999.90;;;;;;;10.38;100.00;102193.03;10375182;28;20049;-68
2024/01/26 01:56:36;;;;;;;1999.90;999.90;;;;;;;10.62;100.00;102179.16;10374116;28;20128;-68
2024/01/26 02:01:38;;;;;;;1999.90;999.90;;;;;;;10.18;100.00;102172.72;10373872;28;20049;-68
2024/01/26 02:06:41;;;;;;;1999.90;999.90;;;;;;;10.35;100.00;102172.19;10374883;28;20054;-68
2024/01/26 02:11:43;;;;;;;1999.90;999.90;;;;;;;10.14;100.00;102163.28;10372868;28;20108;-68
2024/01/26 02:16:56;;;;;;;1999.90;999.90;;;;;;;10.20;100.00;102157.84;10372957;28;20405;-68
2024/01/26 02:21:59;;;;;;;1999.90;999.90;;;;;;;10.01;100.00;102152.38;10374495;28;20081;-68
2024/01/26 02:27:01;;;;;;;1999.90;999.90;;;;;;;9.78;100.00;102149.66;10436148;22;20057;-69
2024/01/26 02:32:04;;;;;;;1999.90;999.90;;;;;;;10.01;100.00;102141.91;10422882;28;20550;-69
2024/01/26 02:37:06;;;;;;;1999.90;999.90;;;;;;;9.98;100.00;102128.91;10423412;28;20087;-69
2024/01/26 02:42:08;;;;;;;1999.90;999.90;;;;;;;10.20;100.00;102117.72;10422560;28;20475;-69
2024/01/26 02:47:11;;;;;;;1999.90;999.90;;;;;;;10.02;100.00;102101.75;10423015;28;20049;-69
2024/01/26 02:52:13;;;;;;;1999.90;999.90;;;;;;;10.03;100.00;102103.44;10422950;28;20049;-69
2024/01/26 02:57:16;;;;;;;1999.90;999.90;;;;;;;9.93;100.00;102106.44;10422611;28;20057;-69
2024/01/26 03:02:18;;;;;;;1999.90;999.90;;;;;;;10.09;100.00;102104.19;10404889;28;20077;-69
2024/01/26 03:07:20;;;;;;;1999.90;999.90;;;;;;;10.19;100.00;102100.31;10421588;28;20049;-69
2024/01/26 03:12:23;;;;;;;1999.90;999.90;;;;;;;10.05;100.00;102087.69;10421977;28;20053;-69
2024/01/26 03:17:25;;;;;;;1999.90;999.90;;;;;;;10.26;100.00;102088.72;10421226;28;20424;-69
2024/01/26 03:22:27;;;;;;;1999.90;999.90;;;;;;;10.13;100.00;102062.13;10420833;28;20455;-69
2024/01/26 03:27:30;;;;;;;1999.90;999.90;;;;;;;10.28;100.00;102047.63;10421488;28;20049;-69
2024/01/26 03:32:33;;;;;;;1999.90;999.90;;;;;;;10.32;100.00;102049.28;10420266;28;20492;-68
2024/01/26 03:37:38;;;;;;;1999.90;999.90;;;;;;;10.45;100.00;102026.09;10421110;28;20081;-69
2024/01/26 03:42:41;;;;;;;1999.90;999.90;;;;;;;10.51;100.00;102004.94;10420277;28;20053;-69
2024/01/26 03:47:44;;;;;;;1999.90;999.90;;;;;;;10.36;100.00;101987.19;10402666;28;20419;-69
2024/01/26 03:52:46;;;;;;;1999.90;999.90;;;;;;;10.39;100.00;101998.41;10419763;28;20511;-69
2024/01/26 03:57:49;;;;;;;1999.90;999.90;;;;;;;10.36;100.00;101982.81;10420329;28;20160;-69
2024/01/26 04:02:51;;;;;;;1999.90;999.90;;;;;;;10.18;100.00;101972.97;10420133;28;20045;-69
2024/01/26 04:07:54;;;;;;;1999.90;999.90;;;;;;;10.45;100.00;101963.25;10419898;28;20049;-69
2024/01/26 04:12:57;;;;;;;1999.90;999.90;;;;;;;10.37;100.00;101954.84;10401474;28;20488;-69
2024/01/26 04:17:59;;;;;;;1999.90;999.90;;;;;;;10.41;100.00;101959.06;10402033;28;20049;-69
2024/01/26 04:23:02;;;;;;;1999.90;999.90;;;;;;;10.37;100.00;101953.09;10418995;28;20128;-69
2024/01/26 04:28:04;;;;;;;1999.90;999.90;;;;;;;10.40;100.00;101941.66;10401599;28;20053;-69
2024/01/26 04:33:07;;;;;;;1999.90;999.90;;;;;;;10.45;100.00;101931.00;10418858;28;20045;-69
2024/01/26 04:38:10;;;;;;;1999.90;999.90;;;;;;;10.50;100.00;101924.66;10418138;28;20056;-69
2024/01/26 04:43:12;;;;;;;1999.90;999.90;;;;;;;10.60;100.00;101910.28;10418505;28;20124;-69
2024/01/26 04:48:14;;;;;;;1999.90;999.90;;;;;;;10.50;100.00;101892.41;10399482;28;20485;-69
2024/01/26 04:53:18;;;;;;;1999.90;999.90;;;;;;;10.44;100.00;101893.50;10417403;28;20052;-69
2024/01/26 04:58:20;;;;;;;1999.90;999.90;;;;;;;10.43;100.00;101883.09;10417908;28;20128;-69
2024/01/26 05:03:22;;;;;;;1999.90;999.90;;;;;;;10.33;100.00;101896.53;10417098;28;20125;-69
2024/01/26 05:08:25;;;;;;;1999.90;999.90;;;;;;;10.33;100.00;101880.81;10417528;28;20056;-69
2024/01/26 05:13:27;;;;;;;1999.90;999.90;;;;;;;10.28;100.00;101895.81;10416607;28;20400;-69
2024/01/26 05:18:29;;;;;;;1999.90;999.90;;;;;;;10.52;100.00;101906.28;10399003;28;20053;-69
2024/01/26 05:23:32;;;;;;;1999.90;999.90;;;;;;;10.54;100.00;101901.81;10416724;28;20053;-69
2024/01/26 05:28:36;;;;;;;1999.90;999.90;;;;;;;10.62;100.00;101905.00;10415694;28;20132;-69
2024/01/26 05:33:38;;;;;;;1999.90;999.90;;;;;;;10.60;100.00;101875.41;10414800;28;20412;-69
2024/01/26 05:38:41;;;;;;;1999.90;999.90;;;;;;;10.71;100.00;101859.28;10416434;28;20046;-69
2024/01/26 05:43:43;;;;;;;1999.90;999.90;;;;;;;10.59;100.00;101852.72;10416393;28;20045;-69
2024/01/26 05:48:46;;;;;;;1999.90;999.90;;;;;;;10.58;100.00;101833.56;10414423;28;20140;-69
2024/01/26 05:53:51;;;;;;;1999.90;999.90;;;;;;;10.47;100.00;101833.13;10415358;28;20046;-69
2024/01/26 05:58:53;;;;;;;1999.90;999.90;;;;;;;10.55;100.00;101822.38;10398408;28;20108;-69
2024/01/26 06:03:55;;;;;;;1999.90;999.90;;;;;;;10.43;100.00;101810.63;10398400;28;20050;-69
2024/01/26 06:08:58;;;;;;;1999.90;999.90;;;;;;;10.59;100.00;101805.59;10415816;28;20057;-69
2024/01/26 06:14:00;;;;;;;1999.90;999.90;;;;;;;10.68;100.00;101802.63;10415793;28;20100;-69
2024/01/26 06:19:03;;;;;;;1999.90;999.90;;;;;;;10.35;100.00;101799.63;10398112;28;20053;-69
2024/01/26 06:24:06;;;;;;;1999.90;999.90;;;;;;;10.33;100.00;101802.28;10415124;28;20103;-69
2024/01/26 06:29:09;;;;;;;1999.90;999.90;;;;;;;10.34;100.00;101803.13;10414757;28;20129;-69
2024/01/26 06:34:11;;;;;;;1999.90;999.90;;;;;;;10.27;100.00;101806.88;10414617;28;20072;-70
2024/01/26 06:39:14;;;;;;;1999.90;999.90;;;;;;;10.30;100.00;101802.38;10414579;28;20408;-69
2024/01/26 06:44:16;;;;;;;1999.90;999.90;;;;;;;10.47;100.00;101796.47;10414491;28;20416;-69
2024/01/26 06:49:18;;;;;;;1999.90;999.90;;;;;;;10.23;100.00;101799.16;10396948;28;20556;-69
2024/01/26 06:54:21;;;;;;;1999.90;999.90;;;;;;;10.17;100.00;101798.53;10414252;28;20056;-69
2024/01/26 06:59:23;;;;;;;1999.90;999.90;;;;;;;10.27;100.00;101799.91;10414785;28;20076;-69
2024/01/26 07:04:26;;;;;;;1999.90;999.90;;;;;;;10.26;100.00;101789.50;10414749;28;20053;-69
2024/01/26 07:09:28;;;;;;;1999.90;999.90;;;;;;;10.15;100.00;101772.44;10417045;28;20493;-69
2024/01/26 07:14:30;;;;;;;1999.90;999.90;;;;;;;10.20;100.00;101778.38;10420816;28;20069;-69
2024/01/26 07:19:33;;;;;;;1999.90;999.90;;;;;;;10.27;100.00;101763.25;10420036;28;20143;-69
2024/01/26 07:24:36;;;;;;;1999.90;999.90;;;;;;;10.29;100.00;101774.50;10421199;28;20061;-69
2024/01/26 07:29:38;;;;;;;1999.90;999.90;;;;;;;10.23;100.00;101762.50;10420761;28;20591;-69
2024/01/26 07:34:41;;;;;;;1999.90;999.90;;;;;;;10.47;100.00;101757.22;10421183;28;20045;-69
2024/01/26 07:39:43;;;;;;;1999.90;999.90;;;;;;;10.41;100.00;101747.84;10402917;28;20481;-69
2024/01/26 07:44:46;;;;;;;1999.90;999.90;;;;;;;10.44;100.00;101748.63;10419733;28;20049;-69
2024/01/26 07:49:48;;;;;;;1999.90;999.90;;;;;;;10.47;100.00;101774.69;10402506;28;20111;-69
2024/01/26 07:54:53;;;;;;;1999.90;999.90;;;;;;;10.55;100.00;101770.00;10420473;28;20057;-69
2024/01/26 07:59:55;;;;;;;1999.90;999.90;;;;;;;10.43;100.00;101776.59;10419683;28;20124;-69
2024/01/26 08:04:59;;;;;;;1999.90;999.90;;;;;;;10.41;100.00;101792.34;10419432;28;20522;-69
2024/01/26 08:10:01;;;;;;;1999.90;999.90;;;;;;;10.50;100.00;101792.91;10419894;28;20084;-69
2024/01/26 08:15:06;;;;;;;1999.90;999.90;;;;;;;10.66;100.00;101800.97;10419646;28;20048;-69
2024/01/26 08:20:09;;;;;;;1999.90;999.90;;;;;;;10.66;100.00;101812.31;10401134;28;20057;-69
2024/01/26 08:25:14;;;;;;;1999.90;999.90;;;;;;;10.90;100.00;101783.38;10418882;28;20057;-69
2024/01/26 08:30:17;;;;;;;1999.90;999.90;;;;;;;10.90;100.00;101797.31;10419143;28;20060;-69
2024/01/26 08:35:20;;;;;;;1999.90;999.90;;;;;;;10.85;100.00;101794.03;10401477;28;20091;-69
2024/01/26 08:40:23;;;;;;;1999.90;999.90;;;;;;;10.99;100.00;101789.97;10418054;28;20409;-69
2024/01/26 08:45:25;;;;;;;1999.90;999.90;;;;;;;11.07;100.00;101775.63;10418487;28;20076;-70
2024/01/26 08:50:28;;;;;;;1999.90;999.90;;;;;;;10.84;100.00;101774.00;10418310;28;20052;-70
2024/01/26 08:55:30;;;;;;;1999.90;999.90;;;;;;;11.10;100.00;101770.25;10418039;28;20045;-69
2024/01/26 09:00:32;;;;;;;1999.90;999.90;;;;;;;11.12;100.00;101770.19;10416137;28;20049;-69
2024/01/26 09:05:35;;;;;;;1999.90;999.90;;;;;;;10.96;100.00;101783.09;10416574;28;20056;-70
2024/01/26 09:10:37;;;;;;;1999.90;999.90;;;;;;;11.08;100.00;101784.34;10416871;28;20049;-69
2024/01/26 09:15:40;;;;;;;1999.90;999.90;;;;;;;11.09;100.00;101802.59;10416580;28;20473;-69
2024/01/26 09:20:44;;;;;;;1999.90;999.90;;;;;;;10.92;100.00;101819.06;10416470;28;20485;-69
2024/01/26 09:25:47;;;;;;;1999.90;999.90;;;;;;;10.91;100.00;101812.13;10398898;28;20057;-69
2024/01/26 09:30:49;;;;;;;1999.90;999.90;;;;;;;10.94;100.00;101821.63;10415873;28;20499;-69
2024/01/26 09:35:51;;;;;;;1999.90;999.90;;;;;;;10.92;100.00;101836.56;10416532;28;20077;-69
2024/01/26 09:40:54;;;;;;;1999.90;999.90;;;;;;;10.92;100.00;101839.16;10398303;28;20405;-69
2024/01/26 09:45:56;;;;;;;1999.90;999.90;;;;;;;10.75;100.00;101835.47;10415700;28;20137;-69
2024/01/26 09:50:59;;;;;;;1999.90;999.90;;;;;;;10.60;100.00;101915.53;10416223;28;20049;-69
2024/01/26 09:56:02;;;;;;;1999.90;999.90;;;;;;;10.23;100.00;101921.31;10398590;28;20052;-69
2024/01/26 10:01:05;;;;;;;1999.90;999.90;;;;;;;9.82;100.00;101926.34;10397913;28;20072;-70
2024/01/26 10:06:09;;;;;;;1999.90;999.90;;;;;;;9.99;100.00;101947.50;10398425;28;20052;-69
2024/01/26 10:11:11;;;;;;;1999.90;999.90;;;;;;;9.91;100.00;101970.47;10398383;28;20081;-69
2024/01/26 10:16:14;;;;;;;1999.90;999.90;;;;;;;9.81;100.00;102024.00;10413817;28;20477;-69
2024/01/26 10:21:17;;;;;;;1999.90;999.90;;;;;;;9.25;100.00;102065.06;10413809;28;20084;-69
2024/01/26 10:26:20;;;;;;;1999.90;999.90;;;;;;;8.85;100.00;102049.75;10414656;28;20412;-69
2024/01/26 10:31:24;;;;;;;1999.90;999.90;;;;;;;8.85;100.00;102063.66;10415501;28;20492;-69
2024/01/26 10:36:27;;;;;;;1999.90;999.90;;;;;;;9.00;100.00;102057.13;10415225;28;20046;-69
2024/01/26 10:41:31;;;;;;;1999.90;999.90;;;;;;;9.33;100.00;102063.94;10397725;28;20130;-69
2024/01/26 10:46:37;;;;;;;1999.90;999.90;;;;;;;9.15;100.00;102078.47;10404307;28;20129;-69
2024/01/26 10:51:43;;;;;;;1999.90;999.90;;;;;;;9.33;100.00;102082.25;10422941;28;20054;-69
2024/01/26 10:56:46;;;;;;;1999.90;999.90;;;;;;;8.99;100.00;102101.56;10422671;28;20041;-69
2024/01/26 11:01:48;;;;;;;1999.90;999.90;;;;;;;9.14;100.00;102121.16;10421931;28;20512;-69
2024/01/26 11:06:51;;;;;;;1999.90;999.90;;;;;;;9.11;100.00;102137.78;10422379;28;20045;-69
2024/01/26 11:11:53;;;;;;;1999.90;999.90;;;;;;;9.44;100.00;102142.88;10422146;28;20080;-69
2024/01/26 11:17:09;;;;;;;1999.90;999.90;;;;;;;9.14;100.00;102155.13;10403715;28;20554;-69
2024/01/26 11:22:14;;;;;;;1999.90;999.90;;;;;;;8.81;95.85;102168.25;10420494;28;20053;-69
2024/01/26 11:27:16;;;;;;;1999.90;999.90;;;;;;;9.80;94.33;102184.47;10420503;28;20065;-69
2024/01/26 11:32:19;;;;;;;1999.90;999.90;;;;;;;9.49;88.13;102195.88;10419993;28;20049;-69
2024/01/26 11:37:22;;;;;;;1999.90;999.90;;;;;;;9.24;86.07;102212.28;10403053;28;20084;-68
2024/01/26 11:42:25;;;;;;;1999.90;999.90;;;;;;;9.65;88.95;102204.97;10419186;28;20129;-69
2024/01/26 11:47:28;;;;;;;1999.90;999.90;;;;;;;9.86;86.32;102233.97;10419731;28;20061;-68
2024/01/26 11:52:32;;;;;;;1999.90;999.90;;;;;;;9.14;84.87;102246.59;10420591;28;20045;-69
2024/01/26 11:57:35;;;;;;;1999.90;999.90;;;;;;;8.95;81.43;102281.06;10419182;28;20049;-68
2024/01/26 12:02:38;;;;;;;1999.90;999.90;;;;;;;9.06;84.59;102278.13;10420397;28;20053;-68
2024/01/26 12:07:40;;;;;;;1999.90;999.90;;;;;;;8.82;81.20;102295.34;10418908;28;20104;-68
2024/01/26 12:12:43;;;;;;;1999.90;999.90;;;;;;;8.95;81.68;102307.19;10418012;28;20128;-69
2024/01/26 12:17:48;;;;;;;1999.90;999.90;;;;;;;8.82;79.33;102316.22;10418509;28;20128;-69
2024/01/26 12:22:50;;;;;;;1999.90;999.90;;;;;;;9.05;79.81;102332.16;10401709;28;20080;-68
2024/01/26 12:27:56;;;;;;;1999.90;999.90;;;;;;;9.26;79.04;102351.66;10384709;28;20141;-69
2024/01/26 12:33:06;;;;;;;1999.90;999.90;;;;;;;9.30;79.95;102360.25;10418340;28;20584;-69
2024/01/26 12:38:09;;;;;;;1999.90;999.90;;;;;;;8.96;78.00;102360.28;10417703;28;20137;-68
2024/01/26 12:43:11;;;;;;;1999.90;999.90;;;;;;;8.87;78.69;102377.03;10418582;28;20077;-69
2024/01/26 12:48:14;;;;;;;1999.90;999.90;;;;;;;8.79;80.37;102399.88;10400901;28;20172;-69
2024/01/26 12:53:17;;;;;;;1999.90;999.90;;;;;;;8.81;80.00;102400.69;10400659;28;20103;-69
2024/01/26 12:58:20;;;;;;;1999.90;999.90;;;;;;;8.79;78.89;102418.16;10399935;28;20433;-69
2024/01/26 13:03:24;;;;;;;1999.90;999.90;;;;;;;8.83;79.08;102422.41;10417883;28;20064;-69
2024/01/26 13:08:26;;;;;;;1999.90;999.90;;;;;;;8.67;79.89;102435.81;10415417;28;20528;-68
2024/01/26 13:13:29;;;;;;;1999.90;999.90;;;;;;;8.52;78.42;102449.22;10416745;28;20483;-68
2024/01/26 13:18:33;;;;;;;1999.90;999.90;;;;;;;8.42;77.51;102464.19;10417278;28;20053;-68
2024/01/26 13:23:41;;;;;;;1999.90;999.90;;;;;;;8.40;78.56;102476.44;10416874;28;20057;-68
2024/01/26 13:28:43;;;;;;;1999.90;999.90;;;;;;;8.67;79.99;102488.03;10416922;28;20053;-68
2024/01/26 13:33:46;;;;;;;1999.90;999.90;;;;;;;8.63;80.94;102501.22;10416682;28;20045;-68
2024/01/26 13:38:48;;;;;;;1999.90;999.90;;;;;;;8.47;80.22;102500.69;10416631;28;20053;-68
2024/01/26 13:43:51;;;;;;;1999.90;999.90;;;;;;;8.28;79.61;102514.06;10416483;28;20105;-68
2024/01/26 13:48:53;;;;;;;1999.90;999.90;;;;;;;8.31;79.98;102516.63;10414505;28;20156;-68
2024/01/26 13:53:55;;;;;;;1999.90;999.90;;;;;;;8.18;78.79;102521.22;10415448;28;20400;-68
2024/01/26 13:58:58;;;;;;;1999.90;999.90;;;;;;;8.28;80.71;102532.34;10416000;28;20057;-68
2024/01/26 14:04:00;;;;;;;1999.90;999.90;;;;;;;8.22;79.24;102542.94;10415433;28;20050;-68
2024/01/26 14:09:03;;;;;;;1999.90;999.90;;;;;;;7.98;78.55;102550.34;10415819;28;20128;-68
2024/01/26 14:14:06;;;;;;;1999.90;999.90;;;;;;;7.95;79.63;102554.72;10415650;28;20049;-68
2024/01/26 14:19:10;;;;;;;1999.90;999.90;;;;;;;8.07;79.74;102562.34;10418548;28;20081;-68
2024/01/26 14:24:12;;;;;;;1999.90;999.90;;;;;;;8.15;80.73;102570.88;10423463;28;20124;-68
2024/01/26 14:29:18;;;;;;;1999.90;999.90;;;;;;;8.00;78.57;102594.63;10423929;28;20054;-68
2024/01/26 14:34:25;;;;;;;1999.90;999.90;;;;;;;8.34;81.33;102602.69;10423002;28;20495;-68
2024/01/26 14:39:28;;;;;;;1999.90;999.90;;;;;;;8.05;79.82;102616.25;10401598;22;20096;-68
2024/01/26 14:44:31;;;;;;;1999.90;999.90;;;;;;;7.90;80.63;102625.25;10340720;28;20077;-68
2024/01/26 14:49:33;;;;;;;1999.90;999.90;;;;;;;7.68;79.39;102655.16;10341739;28;20058;-68
2024/01/26 14:54:38;;;;;;;1999.90;999.90;;;;;;;7.85;81.57;102653.16;10341448;28;20042;-68
2024/01/26 14:59:40;;;;;;;1999.90;999.90;;;;;;;7.99;81.28;102668.56;10341319;28;20057;-68
2024/01/26 15:04:42;;;;;;;1999.90;999.90;;;;;;;7.89;81.95;102688.72;10341125;28;20046;-68
2024/01/26 15:09:45;;;;;;;1999.90;999.90;;;;;;;7.86;81.71;102695.72;10339780;28;20057;-68
2024/01/26 15:14:47;;;;;;;1999.90;999.90;;;;;;;7.86;82.92;102711.38;10338824;28;20050;-68
2024/01/26 15:19:51;;;;;;;1999.90;999.90;;;;;;;7.66;82.42;102729.91;10340522;28;20108;-68
2024/01/26 15:24:56;;;;;;;1999.90;999.90;;;;;;;7.37;81.45;102728.56;10339181;28;20070;-68
2024/01/26 15:29:59;;;;;;;1999.90;999.90;;;;;;;7.35;83.35;102751.19;10339156;28;20578;-68
2024/01/26 15:35:02;;;;;;;1999.90;999.90;;;;;;;7.30;83.31;102750.38;10339944;28;20078;-68
2024/01/26 15:40:06;;;;;;;1999.90;999.90;;;;;;;7.20;84.21;102776.53;10337830;28;20489;-68
2024/01/26 15:45:10;;;;;;;1999.90;999.90;;;;;;;7.13;85.07;102787.03;10322493;28;20097;-68
2024/01/26 15:50:13;;;;;;;1999.90;999.90;;;;;;;7.25;84.73;102807.75;10339632;28;20072;-68
2024/01/26 15:55:16;;;;;;;1999.90;999.90;;;;;;;7.30;85.40;102792.09;10337929;28;20054;-68
2024/01/26 16:00:18;;;;;;;1999.90;999.90;;;;;;;7.05;84.04;102811.44;10338346;28;20060;-68
2024/01/26 16:05:21;;;;;;;1999.90;999.90;;;;;;;7.15;84.40;102819.16;10337013;28;20405;-68
2024/01/26 16:10:23;;;;;;;1999.90;999.90;;;;;;;7.17;84.82;102839.09;10338633;28;20088;-68
2024/01/26 16:15:26;;;;;;;1999.90;999.90;;;;;;;7.09;86.33;102845.28;10338308;28;20089;-68
2024/01/26 16:20:29;;;;;;;1999.90;999.90;;;;;;;7.08;83.84;102867.84;10336443;28;20540;-68
2024/01/26 16:25:32;;;;;;;1999.90;999.90;;;;;;;7.24;83.66;102874.63;10338006;28;20054;-68
2024/01/26 16:30:37;;;;;;;1999.90;999.90;;;;;;;7.12;85.14;102892.97;10337246;28;20082;-68
2024/01/26 16:35:39;;;;;;;1999.90;999.90;;;;;;;7.15;83.21;102894.72;10336409;28;20042;-68
2024/01/26 16:40:42;;;;;;;1999.90;999.90;;;;;;;6.99;84.02;102909.59;10336008;28;20080;-68
2024/01/26 16:45:44;;;;;;;1999.90;999.90;;;;;;;6.85;84.59;102912.31;10319538;28;20058;-68
2024/01/26 16:50:47;;;;;;;1999.90;999.90;;;;;;;7.01;84.31;102920.88;10336441;28;20482;-68
2024/01/26 16:55:49;;;;;;;1999.90;999.90;;;;;;;6.83;85.48;102940.97;10335626;28;20129;-68
2024/01/26 17:00:53;;;;;;;1999.90;999.90;;;;;;;6.61;85.49;102952.44;10336014;28;20060;-68
2024/01/26 17:05:57;;;;;;;1999.90;999.90;;;;;;;6.43;85.89;102959.44;10335763;28;20482;-68
2024/01/26 17:11:00;;;;;;;1999.90;999.90;;;;;;;6.33;87.22;102963.81;10336251;28;20058;-68
2024/01/26 17:16:03;;;;;;;1999.90;999.90;;;;;;;6.18;87.05;102968.25;10334800;28;20047;-68
2024/01/26 17:21:06;;;;;;;1999.90;999.90;;;;;;;6.19;87.16;102981.25;10318669;28;20129;-68
2024/01/26 17:26:09;;;;;;;1999.90;999.90;;;;;;;6.05;88.65;102985.63;10334547;28;20042;-68
2024/01/26 17:31:11;;;;;;;1999.90;999.90;;;;;;;5.98;89.42;102995.19;10317651;28;20054;-68
2024/01/26 17:36:15;;;;;;;1999.90;999.90;;;;;;;5.88;88.83;102999.50;10335313;28;20053;-68
2024/01/26 17:41:17;;;;;;;1999.90;999.90;;;;;;;5.58;90.23;103014.31;10334598;28;20058;-68
2024/01/26 17:46:19;;;;;;;1999.90;999.90;;;;;;;5.61;90.97;103026.41;10335041;28;20042;-68
2024/01/26 17:51:22;;;;;;;1999.90;999.90;;;;;;;5.61;91.83;103023.81;10334157;28;20161;-68
2024/01/26 17:56:25;;;;;;;1999.90;999.90;;;;;;;5.45;93.14;103035.97;10334689;28;20054;-68
2024/01/26 18:01:27;;;;;;;1999.90;999.90;;;;;;;5.42;93.21;103061.09;10333382;28;20050;-68
2024/01/26 18:06:30;;;;;;;1999.90;999.90;;;;;;;5.45;93.74;103055.91;10333336;28;20130;-68
2024/01/26 18:11:32;;;;;;;1999.90;999.90;;;;;;;5.35;93.96;103058.47;10334486;28;20054;-68
2024/01/26 18:16:37;;;;;;;1999.90;999.90;;;;;;;5.56;95.08;103057.63;10333616;28;20082;-68
2024/01/26 18:21:39;;;;;;;1999.90;999.90;;;;;;;5.57;94.09;103067.13;10334167;28;20057;-68
2024/01/26 18:26:41;;;;;;;1999.90;999.90;;;;;;;5.36;94.64;103064.53;10333488;28;20481;-68
2024/01/26 18:31:44;;;;;;;1999.90;999.90;;;;;;;5.49;94.37;103079.25;10332957;28;20059;-68
2024/01/26 18:36:46;;;;;;;1999.90;999.90;;;;;;;5.26;94.93;103081.88;10332772;28;20054;-68
2024/01/26 18:41:49;;;;;;;1999.90;999.90;;;;;;;5.25;93.74;103095.69;10333255;28;20054;-68
2024/01/26 18:46:51;;;;;;;1999.90;999.90;;;;;;;5.11;94.49;103087.00;10333187;28;20509;-68
2024/01/26 18:51:54;;;;;;;1999.90;999.90;;;;;;;5.10;95.26;103103.47;10333112;28;20539;-68
2024/01/26 18:56:58;;;;;;;1999.90;999.90;;;;;;;5.15;96.05;103118.19;10333587;28;20057;-68
2024/01/26 19:02:02;;;;;;;1999.90;999.90;;;;;;;5.19;95.51;103122.53;10333553;28;20050;-67
2024/01/26 19:07:05;;;;;;;1999.90;999.90;;;;;;;5.18;94.85;103130.31;10337209;28;20482;-68
2024/01/26 19:12:08;;;;;;;1999.90;999.90;;;;;;;5.11;95.25;103129.44;10339079;28;20050;-68
2024/01/26 19:17:11;;;;;;;1999.90;999.90;;;;;;;5.09;95.09;103140.66;10340578;28;20050;-68
2024/01/26 19:22:14;;;;;;;1999.90;999.90;;;;;;;4.99;96.19;103150.16;10340463;28;20054;-68
2024/01/26 19:27:16;;;;;;;1999.90;999.90;;;;;;;4.83;96.41;103144.91;10338545;28;20053;-68
2024/01/26 19:32:19;;;;;;;1999.90;999.90;;;;;;;4.75;96.98;103163.91;10338316;28;20432;-68
2024/01/26 19:37:21;;;;;;;1999.90;999.90;;;;;;;4.73;96.22;103163.91;10339809;28;20125;-67
2024/01/26 19:42:24;;;;;;;1999.90;999.90;;;;;;;4.87;96.07;103168.28;10337790;28;20064;-67
2024/01/26 19:47:27;;;;;;;1999.90;999.90;;;;;;;4.71;96.39;103172.53;10338318;28;20093;-67
2024/01/26 19:52:29;;;;;;;1999.90;999.90;;;;;;;4.74;96.56;103178.63;10338677;28;20486;-67
2024/01/26 19:57:32;;;;;;;1999.90;999.90;;;;;;;4.73;95.62;103186.41;10338452;28;20502;-67
2024/01/26 20:02:35;;;;;;;1999.90;999.90;;;;;;;4.53;97.41;103183.69;10338957;28;20116;-68
2024/01/26 20:07:37;;;;;;;1999.90;999.90;;;;;;;4.45;97.67;103194.88;10337592;28;20053;-68
2024/01/26 20:12:40;;;;;;;1999.90;999.90;;;;;;;4.34;99.24;103185.25;10337416;28;20133;-68
2024/01/26 20:17:43;;;;;;;1999.90;999.90;;;;;;;4.37;100.00;103191.38;10336513;28;20046;-68
2024/01/26 20:22:45;;;;;;;1999.90;999.90;;;;;;;4.37;100.00;103193.06;10337039;28;20054;-68
2024/01/26 20:27:48;;;;;;;1999.90;999.90;;;;;;;4.19;100.00;103193.84;10336220;28;20547;-67
2024/01/26 20:32:50;;;;;;;1999.90;999.90;;;;;;;4.06;100.00;103190.25;10336640;28;20058;-68
2024/01/26 20:37:56;;;;;;;1999.90;999.90;;;;;;;4.05;100.00;103204.97;10337287;28;20078;-67
2024/01/26 20:42:59;;;;;;;1999.90;999.90;;;;;;;4.19;100.00;103206.78;10337431;28;20129;-67
2024/01/26 20:48:02;;;;;;;1999.90;999.90;;;;;;;4.03;100.00;103221.34;10336552;28;20129;-67
2024/01/26 20:53:05;;;;;;;1999.90;999.90;;;;;;;4.04;100.00;103216.16;10336395;28;20137;-68
2024/01/26 20:58:08;;;;;;;1999.90;999.90;;;;;;;4.08;100.00;103217.06;10336704;28;20058;-67
2024/01/26 21:03:10;;;;;;;1999.90;999.90;;;;;;;3.82;100.00;103228.06;10335978;28;20068;-67
2024/01/26 21:08:13;;;;;;;1999.90;999.90;;;;;;;3.82;100.00;103229.81;10336407;28;20046;-67
2024/01/26 21:13:18;;;;;;;1999.90;999.90;;;;;;;3.92;100.00;103239.41;10336260;28;20054;-67
2024/01/26 21:18:21;;;;;;;1999.90;999.90;;;;;;;3.71;100.00;103234.84;10334791;28;20046;-67
2024/01/26 21:23:24;;;;;;;1999.90;999.90;;;;;;;3.79;100.00;103240.13;10335217;28;20556;-67
2024/01/26 21:28:26;;;;;;;1999.90;999.90;;;;;;;3.62;100.00;103234.78;10334106;28;20056;-67
2024/01/26 21:33:30;;;;;;;1999.90;999.90;;;;;;;4.07;100.00;103236.94;10333719;28;20137;-67
2024/01/26 21:38:33;;;;;;;1999.90;999.90;;;;;;;3.89;100.00;103236.78;10333847;28;20181;-67
2024/01/26 21:43:35;;;;;;;1999.90;999.90;;;;;;;3.79;100.00;103248.75;10333387;28;20494;-67
2024/01/26 21:48:38;;;;;;;1999.90;999.90;;;;;;;3.83;100.00;103244.47;10334992;28;20050;-67
2024/01/26 21:53:40;;;;;;;1999.90;999.90;;;;;;;3.98;100.00;103243.75;10334775;28;20058;-67